Date,TemperatureHighF,TemperatureAvgF,TemperatureLowF,DewpointHighF,DewpointAvgF,DewpointLowF,HumidityHigh,HumidityAvg,HumidityLow,PressureMaxIn,PressureMinIn,WindSpeedMaxMPH,WindSpeedAvgMPH,GustSpeedMaxMPH,PrecipitationSumIn
2013-7-1,81.8,69.3,57.8,60.3,54.2,48.6,84,60,34,29.81,29.74,2,0,10,0.00
2013-7-2,75.6,62.8,55.1,59.0,52.6,-99.9,94,75,40,29.87,29.75,4,0,11,0.00
2013-7-3,80.3,63.9,55.0,61.6,55.6,53.3,95,77,43,29.86,29.73,3,0,10,0.00
2013-7-4,74.6,68.6,58.3,58.8,54.8,44.2,90,62,35,29.74,29.64,2,0,10,0.00
2013-7-5,61.8,55.9,51.3,52.0,48.7,-99.9,93,80,64,29.73,29.65,10,4,24,0.00
2013-7-6,58.7,53.6,51.1,52.3,50.2,49.1,94,88,77,29.77,29.70,5,2,19,0.00
2013-7-7,62.4,55.2,51.3,53.3,49.9,-99.9,95,86,71,29.82,29.74,4,1,10,0.00
2013-7-8,63.1,55.6,51.6,53.9,51.5,49.9,95,87,71,29.93,29.82,4,0,9,0.00
2013-7-9,75.4,61.9,51.3,59.6,53.1,46.9,95,76,47,29.99,29.90,0,0,3,0.01
2013-7-10,63.4,54.8,50.5,54.0,50.5,-99.9,95,88,67,29.94,29.88,4,1,13,0.00
2013-7-11,59.2,52.6,49.4,54.0,46.5,-99.9,95,88,76,29.91,29.86,5,1,14,0.00
2013-7-12,59.9,54.2,51.0,52.7,49.0,-99.9,94,86,74,29.91,29.85,4,1,13,0.00
2013-7-13,65.6,56.0,50.5,53.4,48.9,-99.9,95,83,62,29.94,29.85,2,0,10,0.00
2013-7-14,61.6,54.2,50.4,52.7,49.2,-99.9,95,87,71,29.97,29.88,4,1,12,0.00
2013-7-15,56.2,51.7,48.8,52.8,49.0,-99.9,95,93,84,29.89,29.82,6,2,27,0.00
2013-7-16,59.8,54.3,51.1,54.1,50.1,-99.9,95,89,78,29.99,29.82,7,2,19,0.00
2013-7-17,63.2,56.2,52.2,54.7,50.5,-99.9,95,86,72,30.06,29.98,3,1,12,0.00
2013-7-18,65.6,55.8,51.3,55.8,50.5,-99.9,95,86,67,30.02,29.91,6,1,14,0.00
2013-7-19,65.8,55.6,51.1,55.0,50.5,-99.9,95,87,66,29.91,29.81,6,1,13,0.00
2013-7-20,64.0,54.2,50.7,55.0,50.2,-99.9,95,89,68,29.81,29.73,7,2,18,0.00
2013-7-21,59.8,53.2,50.8,54.0,50.1,-99.9,95,91,77,29.84,29.72,6,2,13,0.00
2013-7-22,58.9,55.1,51.3,57.6,51.5,-99.9,96,93,87,29.93,29.84,6,1,13,0.00
2013-7-23,65.8,58.8,53.8,57.4,53.1,-99.9,95,83,71,29.97,29.90,4,0,10,0.00
2013-7-24,67.6,59.7,53.9,56.5,51.2,-99.9,95,80,64,29.95,29.88,6,0,12,0.00
2013-7-25,64.7,56.3,51.0,54.6,49.9,-99.9,95,85,65,29.99,29.88,3,0,11,0.00
2013-7-26,63.1,55.3,51.1,56.0,51.7,-99.9,96,90,73,30.06,29.97,4,1,11,0.00
2013-7-27,53.5,52.4,52.0,52.4,49.1,-99.9,96,94,95,29.99,29.94,2,0,12,0.00
2013-7-28,54.7,52.6,51.3,53.6,50.9,-99.9,96,95,93,29.85,29.79,9,2,17,0.00
2013-7-29,56.5,53.2,51.3,52.8,51.2,50.2,96,93,86,29.98,29.81,10,5,19,0.00
2013-7-30,58.9,53.7,51.0,53.4,48.7,-99.9,96,90,78,30.07,29.98,7,2,13,0.00
2013-7-31,61.5,55.0,50.1,54.0,51.2,49.0,96,88,72,30.06,29.97,9,2,18,0.00